sensor_id;sensor_type;location;lat;lon;timestamp;P1;durP1;ratioP1;P2;durP2;ratioP2
17488;SDS011;8861;52.644;4.734;2022-08-21T00:01:20;6.80;;;4.03;;
17488;SDS011;8861;52.644;4.734;2022-08-21T00:03:51;6.27;;;3.60;;
17488;SDS011;8861;52.644;4.734;2022-08-21T00:06:18;5.53;;;3.70;;
17488;SDS011;8861;52.644;4.734;2022-08-21T00:08:45;5.90;;;3.83;;
17488;SDS011;8861;52.644;4.734;2022-08-21T00:11:12;8.10;;;3.70;;
17488;SDS011;8861;52.644;4.734;2022-08-21T00:13:39;7.50;;;4.00;;
17488;SDS011;8861;52.644;4.734;2022-08-21T00:16:06;8.37;;;4.40;;
17488;SDS011;8861;52.644;4.734;2022-08-21T00:18:33;8.13;;;4.10;;
17488;SDS011;8861;52.644;4.734;2022-08-21T00:21:02;7.93;;;4.30;;
17488;SDS011;8861;52.644;4.734;2022-08-21T00:23:29;7.00;;;3.80;;
17488;SDS011;8861;52.644;4.734;2022-08-21T00:25:56;5.87;;;3.70;;
17488;SDS011;8861;52.644;4.734;2022-08-21T00:28:23;5.80;;;3.70;;
17488;SDS011;8861;52.644;4.734;2022-08-21T00:30:50;7.87;;;4.50;;
17488;SDS011;8861;52.644;4.734;2022-08-21T00:33:17;6.90;;;4.03;;
17488;SDS011;8861;52.644;4.734;2022-08-21T00:35:44;9.00;;;4.40;;
17488;SDS011;8861;52.644;4.734;2022-08-21T00:38:12;6.53;;;4.10;;
17488;SDS011;8861;52.644;4.734;2022-08-21T00:40:41;4.93;;;3.70;;
17488;SDS011;8861;52.644;4.734;2022-08-21T00:43:11;6.43;;;3.80;;
17488;SDS011;8861;52.644;4.734;2022-08-21T00:45:40;7.70;;;4.40;;
17488;SDS011;8861;52.644;4.734;2022-08-21T00:48:07;5.63;;;3.77;;
17488;SDS011;8861;52.644;4.734;2022-08-21T00:50:35;5.87;;;4.00;;
17488;SDS011;8861;52.644;4.734;2022-08-21T00:53:05;5.17;;;3.60;;
17488;SDS011;8861;52.644;4.734;2022-08-21T00:55:35;5.73;;;3.67;;
17488;SDS011;8861;52.644;4.734;2022-08-21T00:58:04;6.17;;;3.50;;
17488;SDS011;8861;52.644;4.734;2022-08-21T01:00:34;6.80;;;3.47;;
17488;SDS011;8861;52.644;4.734;2022-08-21T01:03:06;4.33;;;3.37;;
17488;SDS011;8861;52.644;4.734;2022-08-21T01:05:35;4.70;;;3.27;;
17488;SDS011;8861;52.644;4.734;2022-08-21T01:08:02;4.60;;;3.53;;
17488;SDS011;8861;52.644;4.734;2022-08-21T01:10:30;5.67;;;3.50;;
17488;SDS011;8861;52.644;4.734;2022-08-21T01:12:58;5.90;;;3.60;;
17488;SDS011;8861;52.644;4.734;2022-08-21T01:15:26;5.10;;;3.60;;
17488;SDS011;8861;52.644;4.734;2022-08-21T01:17:56;4.77;;;3.20;;
17488;SDS011;8861;52.644;4.734;2022-08-21T01:20:23;4.63;;;3.20;;
17488;SDS011;8861;52.644;4.734;2022-08-21T01:22:52;4.60;;;3.20;;
17488;SDS011;8861;52.644;4.734;2022-08-21T01:25:19;3.70;;;3.03;;
17488;SDS011;8861;52.644;4.734;2022-08-21T01:27:47;5.77;;;3.63;;
17488;SDS011;8861;52.644;4.734;2022-08-21T01:30:14;3.90;;;2.90;;
17488;SDS011;8861;52.644;4.734;2022-08-21T01:32:44;4.87;;;3.17;;
17488;SDS011;8861;52.644;4.734;2022-08-21T01:35:13;4.63;;;3.10;;
17488;SDS011;8861;52.644;4.734;2022-08-21T01:37:42;3.70;;;3.00;;
17488;SDS011;8861;52.644;4.734;2022-08-21T01:40:12;6.80;;;3.20;;
17488;SDS011;8861;52.644;4.734;2022-08-21T01:42:41;4.87;;;2.97;;
17488;SDS011;8861;52.644;4.734;2022-08-21T01:45:09;4.03;;;3.07;;
17488;SDS011;8861;52.644;4.734;2022-08-21T01:47:36;4.40;;;2.90;;
17488;SDS011;8861;52.644;4.734;2022-08-21T01:50:04;3.57;;;2.80;;
17488;SDS011;8861;52.644;4.734;2022-08-21T01:52:33;5.40;;;2.90;;
17488;SDS011;8861;52.644;4.734;2022-08-21T01:54:59;4.50;;;2.97;;
17488;SDS011;8861;52.644;4.734;2022-08-21T01:57:28;4.97;;;2.80;;
17488;SDS011;8861;52.644;4.734;2022-08-21T01:59:55;4.47;;;2.60;;
17488;SDS011;8861;52.644;4.734;2022-08-21T02:02:21;5.53;;;3.03;;
17488;SDS011;8861;52.644;4.734;2022-08-21T02:04:48;6.87;;;3.30;;
17488;SDS011;8861;52.644;4.734;2022-08-21T02:07:15;5.27;;;3.20;;
17488;SDS011;8861;52.644;4.734;2022-08-21T02:09:43;3.60;;;2.77;;
17488;SDS011;8861;52.644;4.734;2022-08-21T02:12:10;4.37;;;3.00;;
17488;SDS011;8861;52.644;4.734;2022-08-21T02:14:38;5.37;;;3.07;;
17488;SDS011;8861;52.644;4.734;2022-08-21T02:17:05;4.73;;;3.20;;
17488;SDS011;8861;52.644;4.734;2022-08-21T02:19:32;3.83;;;3.10;;
17488;SDS011;8861;52.644;4.734;2022-08-21T02:21:59;3.60;;;3.10;;
17488;SDS011;8861;52.644;4.734;2022-08-21T02:24:26;4.97;;;3.00;;
17488;SDS011;8861;52.644;4.734;2022-08-21T02:26:53;6.47;;;3.40;;
17488;SDS011;8861;52.644;4.734;2022-08-21T02:29:20;4.47;;;2.93;;
17488;SDS011;8861;52.644;4.734;2022-08-21T02:31:48;5.13;;;3.27;;
17488;SDS011;8861;52.644;4.734;2022-08-21T02:34:15;5.70;;;3.37;;
17488;SDS011;8861;52.644;4.734;2022-08-21T02:36:41;5.07;;;3.30;;
17488;SDS011;8861;52.644;4.734;2022-08-21T02:39:08;5.37;;;3.43;;
17488;SDS011;8861;52.644;4.734;2022-08-21T02:41:35;4.23;;;3.17;;
17488;SDS011;8861;52.644;4.734;2022-08-21T02:44:02;6.23;;;3.60;;
17488;SDS011;8861;52.644;4.734;2022-08-21T02:46:29;4.87;;;3.20;;
17488;SDS011;8861;52.644;4.734;2022-08-21T02:48:58;5.20;;;3.37;;
17488;SDS011;8861;52.644;4.734;2022-08-21T02:51:25;7.47;;;3.90;;
17488;SDS011;8861;52.644;4.734;2022-08-21T02:53:52;5.17;;;3.60;;
17488;SDS011;8861;52.644;4.734;2022-08-21T02:56:19;6.77;;;3.97;;
17488;SDS011;8861;52.644;4.734;2022-08-21T02:58:48;7.30;;;3.80;;
17488;SDS011;8861;52.644;4.734;2022-08-21T03:01:16;6.13;;;3.87;;
17488;SDS011;8861;52.644;4.734;2022-08-21T03:03:45;9.57;;;4.50;;
17488;SDS011;8861;52.644;4.734;2022-08-21T03:06:16;7.10;;;4.07;;
17488;SDS011;8861;52.644;4.734;2022-08-21T03:08:44;8.90;;;4.53;;
17488;SDS011;8861;52.644;4.734;2022-08-21T03:11:12;7.93;;;4.63;;
17488;SDS011;8861;52.644;4.734;2022-08-21T03:13:40;6.50;;;4.00;;
17488;SDS011;8861;52.644;4.734;2022-08-21T03:16:07;7.47;;;4.30;;
17488;SDS011;8861;52.644;4.734;2022-08-21T03:18:34;10.50;;;4.93;;
17488;SDS011;8861;52.644;4.734;2022-08-21T03:21:01;10.30;;;4.87;;
17488;SDS011;8861;52.644;4.734;2022-08-21T03:23:30;7.13;;;4.50;;
17488;SDS011;8861;52.644;4.734;2022-08-21T03:25:57;11.90;;;5.10;;
17488;SDS011;8861;52.644;4.734;2022-08-21T03:28:24;10.00;;;5.13;;
17488;SDS011;8861;52.644;4.734;2022-08-21T03:30:52;8.43;;;5.00;;
17488;SDS011;8861;52.644;4.734;2022-08-21T03:33:19;10.90;;;4.90;;
17488;SDS011;8861;52.644;4.734;2022-08-21T03:35:47;11.87;;;5.37;;
17488;SDS011;8861;52.644;4.734;2022-08-21T03:38:26;12.43;;;5.40;;
17488;SDS011;8861;52.644;4.734;2022-08-21T03:40:56;11.33;;;5.53;;
17488;SDS011;8861;52.644;4.734;2022-08-21T03:43:24;8.97;;;5.50;;
17488;SDS011;8861;52.644;4.734;2022-08-21T03:45:51;10.17;;;5.20;;
17488;SDS011;8861;52.644;4.734;2022-08-21T03:48:18;9.93;;;6.00;;
17488;SDS011;8861;52.644;4.734;2022-08-21T03:50:45;9.63;;;5.67;;
17488;SDS011;8861;52.644;4.734;2022-08-21T03:53:14;11.37;;;5.43;;
17488;SDS011;8861;52.644;4.734;2022-08-21T03:55:42;11.43;;;5.43;;
17488;SDS011;8861;52.644;4.734;2022-08-21T03:58:10;8.53;;;4.97;;
17488;SDS011;8861;52.644;4.734;2022-08-21T04:00:37;7.63;;;4.73;;
17488;SDS011;8861;52.644;4.734;2022-08-21T04:03:04;9.53;;;4.83;;
17488;SDS011;8861;52.644;4.734;2022-08-21T04:05:31;8.67;;;5.27;;
17488;SDS011;8861;52.644;4.734;2022-08-21T04:08:00;11.43;;;5.37;;
17488;SDS011;8861;52.644;4.734;2022-08-21T04:10:30;11.07;;;6.10;;
17488;SDS011;8861;52.644;4.734;2022-08-21T04:12:58;10.90;;;5.07;;
17488;SDS011;8861;52.644;4.734;2022-08-21T04:15:26;7.33;;;4.93;;
17488;SDS011;8861;52.644;4.734;2022-08-21T04:17:53;11.93;;;5.63;;
17488;SDS011;8861;52.644;4.734;2022-08-21T04:20:21;9.63;;;4.87;;
17488;SDS011;8861;52.644;4.734;2022-08-21T04:22:48;13.53;;;5.33;;
17488;SDS011;8861;52.644;4.734;2022-08-21T04:25:17;10.53;;;4.97;;
17488;SDS011;8861;52.644;4.734;2022-08-21T04:27:45;10.10;;;5.37;;
17488;SDS011;8861;52.644;4.734;2022-08-21T04:30:13;8.97;;;4.57;;
17488;SDS011;8861;52.644;4.734;2022-08-21T04:32:43;8.50;;;4.70;;
17488;SDS011;8861;52.644;4.734;2022-08-21T04:35:12;9.47;;;4.27;;
17488;SDS011;8861;52.644;4.734;2022-08-21T04:37:41;7.40;;;4.30;;
17488;SDS011;8861;52.644;4.734;2022-08-21T04:40:08;10.10;;;4.70;;
17488;SDS011;8861;52.644;4.734;2022-08-21T04:42:40;10.10;;;5.17;;
17488;SDS011;8861;52.644;4.734;2022-08-21T04:45:14;8.80;;;4.60;;
17488;SDS011;8861;52.644;4.734;2022-08-21T04:47:46;11.07;;;4.60;;
17488;SDS011;8861;52.644;4.734;2022-08-21T04:50:14;14.07;;;4.97;;
17488;SDS011;8861;52.644;4.734;2022-08-21T04:52:41;10.43;;;4.87;;
17488;SDS011;8861;52.644;4.734;2022-08-21T04:55:07;8.30;;;4.60;;
17488;SDS011;8861;52.644;4.734;2022-08-21T04:57:34;7.10;;;4.30;;
17488;SDS011;8861;52.644;4.734;2022-08-21T05:00:02;7.93;;;4.30;;
17488;SDS011;8861;52.644;4.734;2022-08-21T05:02:31;8.13;;;4.40;;
17488;SDS011;8861;52.644;4.734;2022-08-21T05:05:00;10.17;;;4.77;;
17488;SDS011;8861;52.644;4.734;2022-08-21T05:07:27;10.27;;;5.17;;
17488;SDS011;8861;52.644;4.734;2022-08-21T05:09:56;10.13;;;4.40;;
17488;SDS011;8861;52.644;4.734;2022-08-21T05:12:23;9.50;;;4.33;;
17488;SDS011;8861;52.644;4.734;2022-08-21T05:14:51;9.00;;;4.70;;
17488;SDS011;8861;52.644;4.734;2022-08-21T05:17:18;10.57;;;4.57;;
17488;SDS011;8861;52.644;4.734;2022-08-21T05:19:44;8.97;;;4.07;;
17488;SDS011;8861;52.644;4.734;2022-08-21T05:22:18;8.43;;;4.03;;
17488;SDS011;8861;52.644;4.734;2022-08-21T05:24:45;7.60;;;4.00;;
17488;SDS011;8861;52.644;4.734;2022-08-21T05:27:12;6.83;;;3.60;;
17488;SDS011;8861;52.644;4.734;2022-08-21T05:29:39;8.13;;;4.53;;
17488;SDS011;8861;52.644;4.734;2022-08-21T05:32:07;7.07;;;3.90;;
17488;SDS011;8861;52.644;4.734;2022-08-21T05:34:35;7.17;;;4.03;;
17488;SDS011;8861;52.644;4.734;2022-08-21T05:37:02;9.27;;;4.20;;
17488;SDS011;8861;52.644;4.734;2022-08-21T05:39:31;8.17;;;4.13;;
17488;SDS011;8861;52.644;4.734;2022-08-21T05:41:58;5.70;;;3.50;;
17488;SDS011;8861;52.644;4.734;2022-08-21T05:44:25;6.27;;;3.63;;
17488;SDS011;8861;52.644;4.734;2022-08-21T05:46:51;5.97;;;3.40;;
17488;SDS011;8861;52.644;4.734;2022-08-21T05:49:18;7.40;;;3.77;;
17488;SDS011;8861;52.644;4.734;2022-08-21T05:51:45;8.07;;;3.63;;
17488;SDS011;8861;52.644;4.734;2022-08-21T05:54:12;7.67;;;3.63;;
17488;SDS011;8861;52.644;4.734;2022-08-21T05:56:40;10.20;;;3.87;;
17488;SDS011;8861;52.644;4.734;2022-08-21T05:59:09;9.07;;;3.50;;
17488;SDS011;8861;52.644;4.734;2022-08-21T06:01:38;9.17;;;3.97;;
17488;SDS011;8861;52.644;4.734;2022-08-21T06:04:06;9.70;;;3.67;;
17488;SDS011;8861;52.644;4.734;2022-08-21T06:06:33;6.73;;;3.53;;
17488;SDS011;8861;52.644;4.734;2022-08-21T06:09:00;11.27;;;4.43;;
17488;SDS011;8861;52.644;4.734;2022-08-21T06:11:28;9.03;;;4.20;;
17488;SDS011;8861;52.644;4.734;2022-08-21T06:13:56;9.03;;;3.93;;
17488;SDS011;8861;52.644;4.734;2022-08-21T06:16:24;11.13;;;4.17;;
17488;SDS011;8861;52.644;4.734;2022-08-21T06:18:51;8.23;;;3.87;;
17488;SDS011;8861;52.644;4.734;2022-08-21T06:21:18;8.73;;;3.87;;
17488;SDS011;8861;52.644;4.734;2022-08-21T06:23:45;8.10;;;3.80;;
17488;SDS011;8861;52.644;4.734;2022-08-21T06:26:12;8.23;;;3.87;;
17488;SDS011;8861;52.644;4.734;2022-08-21T06:28:41;6.30;;;3.33;;
17488;SDS011;8861;52.644;4.734;2022-08-21T06:31:15;5.03;;;3.10;;
17488;SDS011;8861;52.644;4.734;2022-08-21T06:33:44;6.60;;;3.60;;
17488;SDS011;8861;52.644;4.734;2022-08-21T06:36:11;7.93;;;3.80;;
17488;SDS011;8861;52.644;4.734;2022-08-21T06:38:38;9.73;;;4.40;;
17488;SDS011;8861;52.644;4.734;2022-08-21T06:41:05;8.60;;;4.10;;
17488;SDS011;8861;52.644;4.734;2022-08-21T06:43:32;6.27;;;3.83;;
17488;SDS011;8861;52.644;4.734;2022-08-21T06:45:59;7.77;;;3.67;;
17488;SDS011;8861;52.644;4.734;2022-08-21T06:48:28;6.70;;;3.70;;
17488;SDS011;8861;52.644;4.734;2022-08-21T06:50:57;7.43;;;3.50;;
17488;SDS011;8861;52.644;4.734;2022-08-21T06:53:25;6.87;;;3.53;;
17488;SDS011;8861;52.644;4.734;2022-08-21T06:55:52;4.40;;;3.40;;
17488;SDS011;8861;52.644;4.734;2022-08-21T06:58:20;9.50;;;4.00;;
17488;SDS011;8861;52.644;4.734;2022-08-21T07:00:47;7.33;;;3.83;;
17488;SDS011;8861;52.644;4.734;2022-08-21T07:03:17;10.83;;;4.60;;
17488;SDS011;8861;52.644;4.734;2022-08-21T07:05:46;7.60;;;4.10;;
17488;SDS011;8861;52.644;4.734;2022-08-21T07:08:13;7.67;;;4.20;;
17488;SDS011;8861;52.644;4.734;2022-08-21T07:10:40;7.73;;;3.53;;
17488;SDS011;8861;52.644;4.734;2022-08-21T07:13:07;8.03;;;3.97;;
17488;SDS011;8861;52.644;4.734;2022-08-21T07:15:34;8.43;;;4.07;;
17488;SDS011;8861;52.644;4.734;2022-08-21T07:18:01;8.50;;;3.70;;
17488;SDS011;8861;52.644;4.734;2022-08-21T07:20:29;6.03;;;3.53;;
17488;SDS011;8861;52.644;4.734;2022-08-21T07:22:59;7.40;;;3.50;;
17488;SDS011;8861;52.644;4.734;2022-08-21T07:25:29;6.53;;;3.63;;
17488;SDS011;8861;52.644;4.734;2022-08-21T07:27:56;7.00;;;4.03;;
17488;SDS011;8861;52.644;4.734;2022-08-21T07:30:23;10.63;;;4.20;;
17488;SDS011;8861;52.644;4.734;2022-08-21T07:32:50;6.50;;;3.60;;
17488;SDS011;8861;52.644;4.734;2022-08-21T07:35:18;5.83;;;3.23;;
17488;SDS011;8861;52.644;4.734;2022-08-21T07:37:46;5.00;;;3.13;;
17488;SDS011;8861;52.644;4.734;2022-08-21T07:40:15;5.57;;;3.23;;
17488;SDS011;8861;52.644;4.734;2022-08-21T07:42:43;5.30;;;3.23;;
17488;SDS011;8861;52.644;4.734;2022-08-21T07:45:12;4.43;;;2.70;;
17488;SDS011;8861;52.644;4.734;2022-08-21T07:47:40;4.10;;;2.80;;
17488;SDS011;8861;52.644;4.734;2022-08-21T07:50:07;3.00;;;2.60;;
17488;SDS011;8861;52.644;4.734;2022-08-21T07:52:34;5.17;;;2.63;;
17488;SDS011;8861;52.644;4.734;2022-08-21T07:55:02;3.60;;;2.53;;
17488;SDS011;8861;52.644;4.734;2022-08-21T07:57:30;4.60;;;2.80;;
17488;SDS011;8861;52.644;4.734;2022-08-21T07:59:57;4.27;;;2.50;;
17488;SDS011;8861;52.644;4.734;2022-08-21T08:02:25;6.23;;;2.80;;
17488;SDS011;8861;52.644;4.734;2022-08-21T08:04:52;5.83;;;2.80;;
17488;SDS011;8861;52.644;4.734;2022-08-21T08:07:20;4.57;;;2.70;;
17488;SDS011;8861;52.644;4.734;2022-08-21T08:09:46;9.43;;;2.90;;
17488;SDS011;8861;52.644;4.734;2022-08-21T08:12:13;9.50;;;3.37;;
17488;SDS011;8861;52.644;4.734;2022-08-21T08:14:41;7.57;;;3.17;;
17488;SDS011;8861;52.644;4.734;2022-08-21T08:17:08;6.20;;;2.80;;
17488;SDS011;8861;52.644;4.734;2022-08-21T08:19:35;4.97;;;2.77;;
17488;SDS011;8861;52.644;4.734;2022-08-21T08:22:11;4.97;;;2.90;;
17488;SDS011;8861;52.644;4.734;2022-08-21T08:24:39;6.63;;;2.70;;
17488;SDS011;8861;52.644;4.734;2022-08-21T08:27:06;5.10;;;3.00;;
17488;SDS011;8861;52.644;4.734;2022-08-21T08:29:33;6.33;;;3.00;;
17488;SDS011;8861;52.644;4.734;2022-08-21T08:32:01;5.73;;;2.77;;
17488;SDS011;8861;52.644;4.734;2022-08-21T08:34:29;6.60;;;3.00;;
17488;SDS011;8861;52.644;4.734;2022-08-21T08:36:56;5.23;;;2.60;;
17488;SDS011;8861;52.644;4.734;2022-08-21T08:39:24;5.03;;;2.30;;
17488;SDS011;8861;52.644;4.734;2022-08-21T08:41:52;6.83;;;2.50;;
17488;SDS011;8861;52.644;4.734;2022-08-21T08:44:25;5.50;;;2.60;;
17488;SDS011;8861;52.644;4.734;2022-08-21T08:46:52;5.50;;;2.80;;
17488;SDS011;8861;52.644;4.734;2022-08-21T08:49:23;6.17;;;2.70;;
17488;SDS011;8861;52.644;4.734;2022-08-21T08:51:57;5.80;;;2.40;;
17488;SDS011;8861;52.644;4.734;2022-08-21T08:54:28;8.03;;;2.90;;
17488;SDS011;8861;52.644;4.734;2022-08-21T08:56:59;5.53;;;2.70;;
17488;SDS011;8861;52.644;4.734;2022-08-21T08:59:32;5.40;;;2.67;;
17488;SDS011;8861;52.644;4.734;2022-08-21T09:02:04;6.27;;;3.00;;
17488;SDS011;8861;52.644;4.734;2022-08-21T09:04:33;7.30;;;2.83;;
17488;SDS011;8861;52.644;4.734;2022-08-21T09:07:04;8.53;;;2.97;;
17488;SDS011;8861;52.644;4.734;2022-08-21T09:09:41;7.47;;;3.20;;
17488;SDS011;8861;52.644;4.734;2022-08-21T09:12:25;7.60;;;2.77;;
17488;SDS011;8861;52.644;4.734;2022-08-21T09:15:01;5.93;;;2.83;;
17488;SDS011;8861;52.644;4.734;2022-08-21T09:17:38;6.97;;;2.90;;
17488;SDS011;8861;52.644;4.734;2022-08-21T09:20:17;10.53;;;3.37;;
17488;SDS011;8861;52.644;4.734;2022-08-21T09:22:55;4.60;;;2.60;;
17488;SDS011;8861;52.644;4.734;2022-08-21T09:25:34;7.77;;;2.70;;
17488;SDS011;8861;52.644;4.734;2022-08-21T09:28:08;5.33;;;2.50;;
17488;SDS011;8861;52.644;4.734;2022-08-21T09:30:39;6.63;;;2.80;;
17488;SDS011;8861;52.644;4.734;2022-08-21T09:33:06;7.47;;;2.70;;
17488;SDS011;8861;52.644;4.734;2022-08-21T09:35:35;6.13;;;2.67;;
17488;SDS011;8861;52.644;4.734;2022-08-21T09:38:03;8.00;;;2.70;;
17488;SDS011;8861;52.644;4.734;2022-08-21T09:40:33;7.10;;;2.70;;
17488;SDS011;8861;52.644;4.734;2022-08-21T09:43:05;5.73;;;2.47;;
17488;SDS011;8861;52.644;4.734;2022-08-21T09:45:42;5.90;;;2.40;;
17488;SDS011;8861;52.644;4.734;2022-08-21T09:48:11;5.33;;;2.27;;
17488;SDS011;8861;52.644;4.734;2022-08-21T09:50:46;5.33;;;2.40;;
17488;SDS011;8861;52.644;4.734;2022-08-21T09:53:16;4.77;;;2.40;;
17488;SDS011;8861;52.644;4.734;2022-08-21T09:55:49;4.50;;;2.40;;
17488;SDS011;8861;52.644;4.734;2022-08-21T09:58:38;6.03;;;2.47;;
17488;SDS011;8861;52.644;4.734;2022-08-21T10:01:12;9.50;;;2.73;;
17488;SDS011;8861;52.644;4.734;2022-08-21T10:03:40;5.93;;;2.60;;
17488;SDS011;8861;52.644;4.734;2022-08-21T10:06:09;5.17;;;2.37;;
17488;SDS011;8861;52.644;4.734;2022-08-21T10:08:38;7.33;;;2.70;;
17488;SDS011;8861;52.644;4.734;2022-08-21T10:11:07;7.40;;;2.20;;
17488;SDS011;8861;52.644;4.734;2022-08-21T10:13:42;6.40;;;2.30;;
17488;SDS011;8861;52.644;4.734;2022-08-21T10:16:21;5.23;;;2.50;;
17488;SDS011;8861;52.644;4.734;2022-08-21T10:19:02;5.23;;;2.40;;
17488;SDS011;8861;52.644;4.734;2022-08-21T10:21:40;5.03;;;2.30;;
17488;SDS011;8861;52.644;4.734;2022-08-21T10:24:18;8.97;;;2.53;;
17488;SDS011;8861;52.644;4.734;2022-08-21T10:26:52;7.63;;;2.60;;
17488;SDS011;8861;52.644;4.734;2022-08-21T10:29:33;5.03;;;2.40;;
17488;SDS011;8861;52.644;4.734;2022-08-21T10:32:10;5.63;;;2.37;;
17488;SDS011;8861;52.644;4.734;2022-08-21T10:34:51;5.87;;;2.53;;
17488;SDS011;8861;52.644;4.734;2022-08-21T10:37:31;5.73;;;2.53;;
17488;SDS011;8861;52.644;4.734;2022-08-21T10:40:15;7.10;;;2.83;;
17488;SDS011;8861;52.644;4.734;2022-08-21T10:42:49;5.13;;;2.00;;
17488;SDS011;8861;52.644;4.734;2022-08-21T10:45:31;5.60;;;2.60;;
17488;SDS011;8861;52.644;4.734;2022-08-21T10:48:07;5.30;;;2.33;;
17488;SDS011;8861;52.644;4.734;2022-08-21T10:50:43;5.90;;;2.60;;
17488;SDS011;8861;52.644;4.734;2022-08-21T10:53:19;4.33;;;2.20;;
17488;SDS011;8861;52.644;4.734;2022-08-21T10:55:56;7.63;;;2.50;;
17488;SDS011;8861;52.644;4.734;2022-08-21T10:58:28;5.83;;;2.30;;
17488;SDS011;8861;52.644;4.734;2022-08-21T11:00:58;3.60;;;2.13;;
17488;SDS011;8861;52.644;4.734;2022-08-21T11:03:34;3.87;;;2.20;;
17488;SDS011;8861;52.644;4.734;2022-08-21T11:06:08;8.63;;;2.63;;
17488;SDS011;8861;52.644;4.734;2022-08-21T11:08:42;5.57;;;2.30;;
17488;SDS011;8861;52.644;4.734;2022-08-21T11:11:15;6.27;;;2.37;;
17488;SDS011;8861;52.644;4.734;2022-08-21T11:13:49;8.47;;;2.60;;
17488;SDS011;8861;52.644;4.734;2022-08-21T11:16:21;4.60;;;2.10;;
17488;SDS011;8861;52.644;4.734;2022-08-21T11:18:53;6.63;;;2.33;;
17488;SDS011;8861;52.644;4.734;2022-08-21T11:21:32;6.30;;;2.67;;
17488;SDS011;8861;52.644;4.734;2022-08-21T11:24:08;8.47;;;2.53;;
17488;SDS011;8861;52.644;4.734;2022-08-21T11:26:44;5.13;;;2.47;;
17488;SDS011;8861;52.644;4.734;2022-08-21T11:29:16;9.67;;;2.70;;
17488;SDS011;8861;52.644;4.734;2022-08-21T11:31:51;5.70;;;2.30;;
17488;SDS011;8861;52.644;4.734;2022-08-21T11:34:31;6.30;;;2.33;;
17488;SDS011;8861;52.644;4.734;2022-08-21T11:37:08;6.07;;;2.30;;
17488;SDS011;8861;52.644;4.734;2022-08-21T11:39:46;5.20;;;1.97;;
17488;SDS011;8861;52.644;4.734;2022-08-21T11:42:24;6.17;;;2.00;;
17488;SDS011;8861;52.644;4.734;2022-08-21T11:45:07;7.20;;;2.33;;
17488;SDS011;8861;52.644;4.734;2022-08-21T11:47:48;4.63;;;2.00;;
17488;SDS011;8861;52.644;4.734;2022-08-21T11:50:21;4.80;;;2.13;;
17488;SDS011;8861;52.644;4.734;2022-08-21T11:52:53;4.87;;;2.10;;
17488;SDS011;8861;52.644;4.734;2022-08-21T11:55:26;6.50;;;2.00;;
17488;SDS011;8861;52.644;4.734;2022-08-21T11:57:58;6.33;;;2.10;;
17488;SDS011;8861;52.644;4.734;2022-08-21T12:00:30;3.77;;;1.97;;
17488;SDS011;8861;52.644;4.734;2022-08-21T12:03:06;6.83;;;2.00;;
17488;SDS011;8861;52.644;4.734;2022-08-21T12:05:36;4.97;;;1.70;;
17488;SDS011;8861;52.644;4.734;2022-08-21T12:08:07;3.80;;;1.60;;
17488;SDS011;8861;52.644;4.734;2022-08-21T12:10:40;3.93;;;1.50;;
17488;SDS011;8861;52.644;4.734;2022-08-21T12:13:09;4.10;;;1.60;;
17488;SDS011;8861;52.644;4.734;2022-08-21T12:15:47;4.00;;;1.40;;
17488;SDS011;8861;52.644;4.734;2022-08-21T12:18:22;4.77;;;1.40;;
17488;SDS011;8861;52.644;4.734;2022-08-21T12:21:02;4.23;;;1.63;;
17488;SDS011;8861;52.644;4.734;2022-08-21T12:23:44;5.53;;;1.67;;
17488;SDS011;8861;52.644;4.734;2022-08-21T12:26:24;4.77;;;1.40;;
17488;SDS011;8861;52.644;4.734;2022-08-21T12:31:51;5.23;;;1.70;;
17488;SDS011;8861;52.644;4.734;2022-08-21T12:34:25;4.77;;;1.50;;
17488;SDS011;8861;52.644;4.734;2022-08-21T12:36:59;4.30;;;1.53;;
17488;SDS011;8861;52.644;4.734;2022-08-21T12:39:29;3.30;;;1.50;;
17488;SDS011;8861;52.644;4.734;2022-08-21T12:42:00;2.80;;;1.40;;
17488;SDS011;8861;52.644;4.734;2022-08-21T12:44:35;5.23;;;2.00;;
17488;SDS011;8861;52.644;4.734;2022-08-21T12:47:13;5.00;;;1.67;;
17488;SDS011;8861;52.644;4.734;2022-08-21T12:49:44;4.57;;;1.80;;
17488;SDS011;8861;52.644;4.734;2022-08-21T12:52:19;4.17;;;1.57;;
17488;SDS011;8861;52.644;4.734;2022-08-21T12:54:48;4.90;;;1.70;;
17488;SDS011;8861;52.644;4.734;2022-08-21T12:57:20;4.93;;;1.93;;
17488;SDS011;8861;52.644;4.734;2022-08-21T12:59:53;4.57;;;1.70;;
17488;SDS011;8861;52.644;4.734;2022-08-21T13:02:22;3.80;;;1.47;;
17488;SDS011;8861;52.644;4.734;2022-08-21T13:04:51;5.47;;;1.87;;
17488;SDS011;8861;52.644;4.734;2022-08-21T13:07:22;5.40;;;1.73;;
17488;SDS011;8861;52.644;4.734;2022-08-21T13:09:53;4.97;;;1.57;;
17488;SDS011;8861;52.644;4.734;2022-08-21T13:12:24;5.03;;;1.80;;
17488;SDS011;8861;52.644;4.734;2022-08-21T13:14:54;6.57;;;1.70;;
17488;SDS011;8861;52.644;4.734;2022-08-21T13:17:22;7.30;;;2.03;;
17488;SDS011;8861;52.644;4.734;2022-08-21T13:19:54;5.97;;;1.97;;
17488;SDS011;8861;52.644;4.734;2022-08-21T13:22:23;6.43;;;2.00;;
17488;SDS011;8861;52.644;4.734;2022-08-21T13:24:51;4.17;;;1.70;;
17488;SDS011;8861;52.644;4.734;2022-08-21T13:27:19;3.47;;;1.67;;
17488;SDS011;8861;52.644;4.734;2022-08-21T13:30:10;5.17;;;1.90;;
17488;SDS011;8861;52.644;4.734;2022-08-21T13:32:40;5.30;;;1.80;;
17488;SDS011;8861;52.644;4.734;2022-08-21T13:35:13;6.70;;;2.27;;
17488;SDS011;8861;52.644;4.734;2022-08-21T13:37:47;6.23;;;1.80;;
17488;SDS011;8861;52.644;4.734;2022-08-21T13:40:19;4.10;;;1.90;;
17488;SDS011;8861;52.644;4.734;2022-08-21T13:42:50;4.43;;;1.80;;
17488;SDS011;8861;52.644;4.734;2022-08-21T13:45:22;3.43;;;1.50;;
17488;SDS011;8861;52.644;4.734;2022-08-21T13:47:51;4.27;;;1.87;;
17488;SDS011;8861;52.644;4.734;2022-08-21T13:50:19;5.17;;;1.50;;
17488;SDS011;8861;52.644;4.734;2022-08-21T13:52:54;6.13;;;1.87;;
17488;SDS011;8861;52.644;4.734;2022-08-21T13:55:23;6.63;;;1.63;;
17488;SDS011;8861;52.644;4.734;2022-08-21T13:58:02;3.53;;;1.70;;
17488;SDS011;8861;52.644;4.734;2022-08-21T14:00:30;3.67;;;1.80;;
17488;SDS011;8861;52.644;4.734;2022-08-21T14:03:01;6.33;;;1.70;;
17488;SDS011;8861;52.644;4.734;2022-08-21T14:05:32;3.67;;;1.67;;
17488;SDS011;8861;52.644;4.734;2022-08-21T14:08:03;5.23;;;1.80;;
17488;SDS011;8861;52.644;4.734;2022-08-21T14:10:34;5.07;;;2.03;;
17488;SDS011;8861;52.644;4.734;2022-08-21T14:13:05;4.67;;;1.73;;
17488;SDS011;8861;52.644;4.734;2022-08-21T14:15:33;3.63;;;1.70;;
17488;SDS011;8861;52.644;4.734;2022-08-21T14:18:18;4.00;;;2.07;;
17488;SDS011;8861;52.644;4.734;2022-08-21T14:20:45;3.43;;;1.83;;
17488;SDS011;8861;52.644;4.734;2022-08-21T14:23:22;3.53;;;1.73;;
17488;SDS011;8861;52.644;4.734;2022-08-21T14:25:51;4.27;;;1.70;;
17488;SDS011;8861;52.644;4.734;2022-08-21T14:28:22;3.57;;;1.70;;
17488;SDS011;8861;52.644;4.734;2022-08-21T14:30:52;4.23;;;1.67;;
17488;SDS011;8861;52.644;4.734;2022-08-21T14:33:21;4.87;;;1.60;;
17488;SDS011;8861;52.644;4.734;2022-08-21T14:35:52;4.10;;;1.80;;
17488;SDS011;8861;52.644;4.734;2022-08-21T14:38:20;4.10;;;1.70;;
17488;SDS011;8861;52.644;4.734;2022-08-21T14:40:48;3.67;;;1.70;;
17488;SDS011;8861;52.644;4.734;2022-08-21T14:43:17;4.33;;;1.93;;
17488;SDS011;8861;52.644;4.734;2022-08-21T14:45:46;3.77;;;1.90;;
17488;SDS011;8861;52.644;4.734;2022-08-21T14:48:13;6.73;;;1.80;;
17488;SDS011;8861;52.644;4.734;2022-08-21T14:50:40;4.30;;;1.73;;
17488;SDS011;8861;52.644;4.734;2022-08-21T14:53:08;4.13;;;1.83;;
17488;SDS011;8861;52.644;4.734;2022-08-21T14:55:35;3.27;;;1.60;;
17488;SDS011;8861;52.644;4.734;2022-08-21T14:58:17;6.03;;;2.00;;
17488;SDS011;8861;52.644;4.734;2022-08-21T15:00:44;5.70;;;1.83;;
17488;SDS011;8861;52.644;4.734;2022-08-21T15:03:12;5.73;;;2.27;;
17488;SDS011;8861;52.644;4.734;2022-08-21T15:05:39;4.90;;;2.30;;
17488;SDS011;8861;52.644;4.734;2022-08-21T15:08:06;5.03;;;1.87;;
17488;SDS011;8861;52.644;4.734;2022-08-21T15:10:33;4.17;;;1.80;;
17488;SDS011;8861;52.644;4.734;2022-08-21T15:13:01;5.40;;;2.10;;
17488;SDS011;8861;52.644;4.734;2022-08-21T15:15:29;3.93;;;1.77;;
17488;SDS011;8861;52.644;4.734;2022-08-21T15:17:59;4.67;;;2.10;;
17488;SDS011;8861;52.644;4.734;2022-08-21T15:20:26;4.27;;;2.00;;